createdAt,value
2019-05-11T00:00:20.926Z,27.73
2019-05-11T00:02:50.246Z,24.95
2019-05-11T00:05:19.557Z,25.23
2019-05-11T00:07:48.823Z,24.87
2019-05-11T00:10:18.207Z,22.93
2019-05-11T00:12:47.512Z,21.15
2019-05-11T00:15:16.815Z,20.70
2019-05-11T00:17:46.338Z,21.52
2019-05-11T00:20:15.916Z,21.62
2019-05-11T00:22:45.211Z,20.97
2019-05-11T00:25:14.737Z,21.05
2019-05-11T00:27:44.113Z,21.70
2019-05-11T00:30:15.100Z,19.27
2019-05-11T00:32:44.403Z,18.87
2019-05-11T00:35:13.714Z,19.48
2019-05-11T00:37:43.012Z,18.45
2019-05-11T00:40:14.788Z,17.82
2019-05-11T00:42:43.797Z,17.35
2019-05-11T00:45:13.181Z,17.40
2019-05-11T00:47:42.684Z,16.87
2019-05-11T00:50:14.600Z,17.20
2019-05-11T00:52:43.889Z,16.62
2019-05-11T00:55:13.191Z,15.95
2019-05-11T00:57:42.492Z,15.53
2019-05-11T01:00:11.937Z,15.88
2019-05-11T01:02:41.242Z,15.38
2019-05-11T01:05:10.700Z,15.55
2019-05-11T01:07:39.993Z,15.83
2019-05-11T01:10:22.981Z,16.93
2019-05-11T01:12:40.627Z,15.70
2019-05-11T01:15:10.389Z,15.13
2019-05-11T01:17:41.311Z,15.68
2019-05-11T01:20:10.684Z,15.65
2019-05-11T01:22:39.987Z,16.23
2019-05-11T01:25:09.434Z,16.07
2019-05-11T01:27:38.752Z,16.50
2019-05-11T01:30:08.497Z,17.00
2019-05-11T01:32:37.931Z,16.70
2019-05-11T01:35:08.688Z,17.17
2019-05-11T01:37:38.102Z,17.30
2019-05-11T01:40:07.861Z,16.87
2019-05-11T01:42:37.168Z,16.60
2019-05-11T01:45:07.212Z,16.67
2019-05-11T01:47:36.539Z,16.10
2019-05-11T01:50:06.326Z,16.27
2019-05-11T01:52:35.607Z,16.27
2019-05-11T01:55:05.479Z,16.42
2019-05-11T01:57:34.795Z,16.77
2019-05-11T02:00:06.904Z,16.15
2019-05-11T02:02:36.508Z,17.65
2019-05-11T02:05:24.623Z,16.75
2019-05-11T02:07:53.898Z,16.07
2019-05-11T02:10:23.332Z,15.98
2019-05-11T02:12:53.071Z,16.67
2019-05-11T02:15:22.373Z,16.35
2019-05-11T02:17:51.718Z,16.10
2019-05-11T02:20:21.585Z,16.50
2019-05-11T02:22:51.064Z,17.25
2019-05-11T02:25:21.509Z,17.07
2019-05-11T02:27:50.815Z,17.37
2019-05-11T02:30:20.283Z,18.67
2019-05-11T02:32:49.594Z,18.87
2019-05-11T02:35:19.025Z,18.27
2019-05-11T02:37:48.336Z,17.92
2019-05-11T02:40:18.239Z,18.30
2019-05-11T02:42:47.538Z,18.07
2019-05-11T02:45:20.009Z,17.95
2019-05-11T02:47:49.808Z,18.40
2019-05-11T02:50:19.084Z,18.77
2019-05-11T02:52:48.560Z,18.95
2019-05-11T02:55:17.835Z,19.80
2019-05-11T02:57:47.128Z,19.05
2019-05-11T03:00:19.654Z,19.85
2019-05-11T03:02:48.959Z,19.20
2019-05-11T03:05:18.227Z,18.95
2019-05-11T03:07:47.535Z,19.77
2019-05-11T03:10:16.886Z,20.12
2019-05-11T03:12:46.183Z,19.75
2019-05-11T03:15:15.467Z,20.37
2019-05-11T03:17:44.797Z,20.90
2019-05-11T03:20:14.281Z,22.13
2019-05-11T03:22:43.555Z,23.32
2019-05-11T03:25:12.874Z,25.70
2019-05-11T03:27:42.158Z,25.82
2019-05-11T03:30:11.792Z,26.97
2019-05-11T03:32:41.063Z,25.08
2019-05-11T03:35:10.695Z,26.70
2019-05-11T03:37:40.007Z,25.12
2019-05-11T03:40:10.448Z,27.10
2019-05-11T03:42:39.738Z,26.02
2019-05-11T03:45:09.162Z,28.17
2019-05-11T03:47:38.445Z,27.45
2019-05-11T03:50:08.179Z,26.35
2019-05-11T03:52:37.463Z,26.65
2019-05-11T03:55:07.206Z,26.27
2019-05-11T03:57:36.478Z,28.35
2019-05-11T04:00:07.121Z,29.35
2019-05-11T04:02:36.389Z,31.65
2019-05-11T04:05:06.352Z,27.27
2019-05-11T04:07:35.620Z,26.33
2019-05-11T04:10:08.649Z,29.32
2019-05-11T04:12:37.928Z,28.45
2019-05-11T04:15:07.976Z,28.52
2019-05-11T04:17:37.244Z,27.05
2019-05-11T04:20:07.005Z,26.93
2019-05-11T04:22:36.287Z,27.02
2019-05-11T04:25:06.238Z,30.00
2019-05-11T04:27:35.663Z,27.00
2019-05-11T04:30:06.871Z,27.05
2019-05-11T04:32:36.143Z,26.02
2019-05-11T04:35:06.433Z,27.30
2019-05-11T04:37:35.695Z,27.10
2019-05-11T04:40:05.658Z,26.50
2019-05-11T04:42:53.508Z,24.27
2019-05-11T04:45:07.638Z,22.80
2019-05-11T04:47:37.166Z,23.20
2019-05-11T04:50:07.905Z,21.00
2019-05-11T04:52:37.209Z,19.95
2019-05-11T04:55:06.680Z,20.62
2019-05-11T04:57:35.972Z,19.60
2019-05-11T05:00:06.275Z,20.05
2019-05-11T05:02:35.574Z,19.75
2019-05-11T05:05:06.386Z,18.35
2019-05-11T05:07:35.736Z,18.70
2019-05-11T05:10:06.136Z,18.00
2019-05-11T05:12:35.440Z,19.40
2019-05-11T05:15:06.593Z,18.87
2019-05-11T05:17:35.907Z,17.35
2019-05-11T05:20:06.857Z,17.10
2019-05-11T05:22:36.305Z,17.37
2019-05-11T05:25:07.323Z,15.40
2019-05-11T05:27:36.637Z,15.05
2019-05-11T05:30:09.068Z,13.65
2019-05-11T05:32:38.358Z,12.15
2019-05-11T05:35:08.300Z,11.97
2019-05-11T05:37:37.603Z,12.05
2019-05-11T05:40:07.143Z,10.68
2019-05-11T05:42:36.441Z,11.88
2019-05-11T05:45:08.981Z,11.40
2019-05-11T05:47:38.293Z,12.53
2019-05-11T05:50:07.835Z,12.05
2019-05-11T05:52:37.136Z,11.80
2019-05-11T05:55:06.666Z,12.68
2019-05-11T05:57:35.978Z,12.13
2019-05-11T06:00:05.637Z,13.88
2019-05-11T06:02:34.920Z,12.65
2019-05-11T06:05:06.256Z,13.75
2019-05-11T06:07:35.557Z,13.30
2019-05-11T06:10:06.560Z,14.13
2019-05-11T06:12:35.858Z,13.38
2019-05-11T06:15:08.252Z,13.53
2019-05-11T06:17:37.570Z,14.13
2019-05-11T06:20:08.011Z,14.13
2019-05-11T06:22:38.890Z,15.05
2019-05-11T06:25:08.264Z,15.08
2019-05-11T06:27:37.639Z,15.30
2019-05-11T06:30:07.337Z,15.68
2019-05-11T06:32:36.655Z,16.57
2019-05-11T06:35:07.493Z,16.00
2019-05-11T06:37:36.801Z,15.78
2019-05-11T06:40:07.550Z,16.25
2019-05-11T06:42:36.852Z,15.32
2019-05-11T06:45:06.849Z,15.20
2019-05-11T06:47:36.166Z,15.25
2019-05-11T06:50:06.354Z,15.25
2019-05-11T06:52:35.668Z,16.27
2019-05-11T06:55:06.416Z,16.17
2019-05-11T06:57:35.740Z,17.30
2019-05-11T07:00:06.088Z,16.20
2019-05-11T07:02:35.382Z,16.25
2019-05-11T07:05:07.145Z,17.32
2019-05-11T07:07:47.209Z,18.20
2019-05-11T07:10:07.610Z,17.77
2019-05-11T07:12:36.930Z,18.32
2019-05-11T07:15:07.028Z,17.45
2019-05-11T07:17:36.649Z,18.23
2019-05-11T07:20:09.324Z,16.97
2019-05-11T07:22:38.622Z,17.42
2019-05-11T07:25:09.601Z,17.57
2019-05-11T07:27:38.951Z,17.77
2019-05-11T07:30:08.508Z,17.57
2019-05-11T07:32:38.354Z,17.62
2019-05-11T07:35:08.670Z,17.25
2019-05-11T07:37:38.686Z,16.62
2019-05-11T07:40:08.418Z,17.37
2019-05-11T07:42:38.222Z,17.15
2019-05-11T07:45:09.003Z,16.23
2019-05-11T07:47:38.548Z,16.70
2019-05-11T07:50:09.219Z,16.50
2019-05-11T07:52:38.541Z,16.12
2019-05-11T07:55:09.102Z,16.23
2019-05-11T07:57:39.277Z,15.53
2019-05-11T08:00:09.745Z,15.65
2019-05-11T08:02:39.137Z,15.18
2019-05-11T08:05:09.877Z,15.03
2019-05-11T08:07:39.176Z,14.68
2019-05-11T08:10:08.653Z,15.15
2019-05-11T08:12:39.075Z,14.93
2019-05-11T08:15:13.430Z,15.60
2019-05-11T08:17:39.965Z,14.73
2019-05-11T08:20:09.917Z,15.05
2019-05-11T08:22:39.251Z,15.28
2019-05-11T08:25:09.482Z,14.58
2019-05-11T08:27:38.873Z,14.03
2019-05-11T08:30:12.890Z,14.07
2019-05-11T08:32:42.191Z,13.68
2019-05-11T08:35:11.767Z,14.05
2019-05-11T08:37:42.132Z,13.58
2019-05-11T08:40:11.796Z,13.98
2019-05-11T08:42:41.081Z,13.38
2019-05-11T08:45:19.974Z,13.45
2019-05-11T08:47:41.588Z,13.38
2019-05-11T08:50:15.077Z,13.70
2019-05-11T08:52:42.746Z,13.10
2019-05-11T08:55:12.350Z,12.33
2019-05-11T08:57:41.658Z,12.53
2019-05-11T09:00:13.274Z,12.23
2019-05-11T09:02:46.759Z,11.83
2019-05-11T09:05:14.940Z,12.68
2019-05-11T09:07:44.248Z,11.63
2019-05-11T09:10:15.465Z,10.63
2019-05-11T09:12:44.713Z,10.63
2019-05-11T09:15:31.561Z,10.72
2019-05-11T09:17:45.495Z,10.48
2019-05-11T09:20:17.843Z,10.95
2019-05-11T09:22:48.508Z,9.03
2019-05-11T09:25:18.466Z,8.25
2019-05-11T09:27:48.444Z,8.53
2019-05-11T09:30:18.629Z,7.60
2019-05-11T09:32:48.266Z,6.90
2019-05-11T09:35:18.868Z,6.45
2019-05-11T09:40:18.643Z,7.22
2019-05-11T09:42:48.179Z,7.20
2019-05-11T09:45:18.723Z,6.72
2019-05-11T09:47:48.470Z,6.40
2019-05-11T09:50:18.160Z,6.60
2019-05-11T09:52:49.178Z,6.28
2019-05-11T09:55:19.132Z,6.60
2019-05-11T09:57:48.968Z,6.50
2019-05-11T10:00:19.022Z,6.20
2019-05-11T10:02:48.936Z,6.20
2019-05-11T10:05:19.007Z,6.03
2019-05-11T10:07:48.805Z,6.70
2019-05-11T10:10:18.735Z,5.95
2019-05-11T10:12:48.963Z,6.25
2019-05-11T10:15:19.485Z,6.33
2019-05-11T10:17:49.872Z,6.30
2019-05-11T10:20:19.160Z,5.95
2019-05-11T10:22:48.814Z,4.80
2019-05-11T10:25:18.446Z,5.37
2019-05-11T10:27:48.969Z,5.58
2019-05-11T10:30:18.790Z,5.20
2019-05-11T10:32:48.636Z,5.33
2019-05-11T10:35:18.531Z,5.78
2019-05-11T10:37:48.027Z,5.15
2019-05-11T10:40:18.897Z,5.17
2019-05-11T10:42:48.626Z,4.97
2019-05-11T10:45:18.185Z,5.20
2019-05-11T10:47:48.919Z,5.33
2019-05-11T10:50:19.010Z,5.55
2019-05-11T10:52:48.634Z,5.10
2019-05-11T10:55:19.270Z,5.40
2019-05-11T10:57:49.803Z,5.78
2019-05-11T11:00:20.981Z,5.47
2019-05-11T11:02:50.314Z,5.60
2019-05-11T11:05:19.855Z,6.20
2019-05-11T11:07:49.246Z,6.47
2019-05-11T11:10:18.787Z,5.50
2019-05-11T11:12:48.989Z,6.20
2019-05-11T11:15:19.440Z,6.00
2019-05-11T11:17:49.116Z,6.12
2019-05-11T11:20:18.891Z,6.10
2019-05-11T11:22:48.537Z,6.15
2019-05-11T11:25:19.919Z,5.80
2019-05-11T11:27:49.215Z,5.60
2019-05-11T11:30:19.450Z,5.72
2019-05-11T11:32:48.827Z,5.95
2019-05-11T11:35:18.877Z,6.37
2019-05-11T11:37:48.386Z,5.92
2019-05-11T11:40:19.489Z,5.45
2019-05-11T11:42:48.783Z,5.60
2019-05-11T11:45:18.475Z,5.67
2019-05-11T11:47:49.400Z,5.92
2019-05-11T11:50:19.551Z,5.50
2019-05-11T11:52:48.866Z,5.05
2019-05-11T11:55:18.743Z,4.80
2019-05-11T11:57:50.443Z,5.53
2019-05-11T12:00:20.821Z,5.30
2019-05-11T12:02:50.367Z,5.08
2019-05-11T12:05:21.286Z,4.65
2019-05-11T12:07:50.556Z,4.70
2019-05-11T12:10:19.855Z,4.30
2019-05-11T12:12:49.150Z,4.67
2019-05-11T12:15:19.582Z,4.08
2019-05-11T12:17:48.977Z,3.90
2019-05-11T12:20:18.433Z,4.15
2019-05-11T12:22:47.829Z,4.65
2019-05-11T12:25:18.600Z,4.65
2019-05-11T12:27:50.703Z,4.53
2019-05-11T12:30:20.104Z,4.20
2019-05-11T12:32:50.427Z,4.58
2019-05-11T12:35:19.930Z,4.10
2019-05-11T12:37:49.221Z,4.15
2019-05-11T12:40:18.939Z,4.80
2019-05-11T12:42:49.018Z,4.60
2019-05-11T12:45:18.517Z,4.47
2019-05-11T12:47:48.209Z,4.60
2019-05-11T12:50:18.619Z,4.80
2019-05-11T12:52:48.128Z,4.50
2019-05-11T12:55:18.060Z,4.35
2019-05-11T12:57:48.888Z,4.20
2019-05-11T13:00:18.555Z,4.35
2019-05-11T13:02:48.502Z,4.95
2019-05-11T13:05:18.209Z,4.85
2019-05-11T13:07:48.358Z,4.70
2019-05-11T13:10:18.018Z,5.20
2019-05-11T13:12:49.487Z,5.58
2019-05-11T13:15:19.244Z,6.00
2019-05-11T13:17:49.286Z,5.42
2019-05-11T13:20:18.840Z,6.03
2019-05-11T13:22:48.852Z,6.12
2019-05-11T13:25:18.577Z,5.95
2019-05-11T13:27:49.431Z,5.87
2019-05-11T13:30:18.964Z,6.35
2019-05-11T13:32:49.063Z,6.25
2019-05-11T13:35:18.612Z,6.17
2019-05-11T13:37:48.160Z,6.33
2019-05-11T13:40:18.512Z,6.35
2019-05-11T13:42:49.007Z,6.20
2019-05-11T13:45:18.749Z,6.42
2019-05-11T13:47:55.369Z,6.72
2019-05-11T13:50:19.257Z,5.97
2019-05-11T13:52:48.551Z,6.45
2019-05-11T13:55:18.352Z,6.33
2019-05-11T13:57:48.549Z,6.80
2019-05-11T14:00:18.301Z,6.28
2019-05-11T14:02:48.611Z,6.45
2019-05-11T14:05:18.286Z,6.70
2019-05-11T14:07:48.365Z,6.92
2019-05-11T14:10:18.260Z,6.30
2019-05-11T14:12:47.951Z,6.25
2019-05-11T14:15:18.860Z,6.40
2019-05-11T14:18:04.418Z,6.37
2019-05-11T14:20:20.508Z,6.12
2019-05-11T14:22:49.794Z,6.08
2019-05-11T14:25:19.062Z,6.08
2019-05-11T14:27:48.379Z,5.90
2019-05-11T14:30:19.105Z,5.50
2019-05-11T14:32:48.746Z,5.70
2019-05-11T14:35:18.812Z,5.10
2019-05-11T14:37:49.468Z,5.53
2019-05-11T14:40:18.753Z,5.20
2019-05-11T14:42:48.951Z,5.50
2019-05-11T14:45:19.835Z,5.33
2019-05-11T14:47:49.166Z,5.17
2019-05-11T14:50:19.097Z,5.20
2019-05-11T14:52:49.186Z,5.58
2019-05-11T14:55:18.758Z,5.50
2019-05-11T14:57:49.524Z,5.58
2019-05-11T15:00:19.054Z,5.08
2019-05-11T15:02:49.660Z,5.12
2019-05-11T15:05:20.426Z,5.12
2019-05-11T15:07:52.386Z,4.97
2019-05-11T15:10:22.233Z,5.17
2019-05-11T15:12:51.534Z,4.92
2019-05-11T15:15:21.100Z,4.90
2019-05-11T15:17:50.391Z,4.83
2019-05-11T15:20:19.843Z,5.10
2019-05-11T15:22:49.259Z,5.10
2019-05-11T15:25:19.951Z,5.10
2019-05-11T15:27:49.614Z,4.90
2019-05-11T15:30:19.726Z,5.12
2019-05-11T15:32:49.135Z,5.15
2019-05-11T15:35:19.054Z,5.00
2019-05-11T15:37:48.682Z,5.08
2019-05-11T15:40:22.665Z,4.58
2019-05-11T15:42:52.023Z,4.53
2019-05-11T15:45:21.468Z,4.87
2019-05-11T15:47:50.839Z,4.53
2019-05-11T15:50:20.579Z,4.92
2019-05-11T15:52:49.970Z,4.70
2019-05-11T15:55:20.732Z,4.40
2019-05-11T15:57:50.021Z,4.87
2019-05-11T16:00:19.474Z,4.30
2019-05-11T16:02:49.231Z,4.78
2019-05-11T16:05:18.877Z,4.33
2019-05-11T16:07:49.269Z,4.12
2019-05-11T16:10:19.304Z,4.55
2019-05-11T16:12:49.156Z,4.30
2019-05-11T16:15:19.612Z,4.60
2019-05-11T16:17:49.802Z,4.65
2019-05-11T16:20:20.574Z,4.50
2019-05-11T16:22:49.885Z,4.20
2019-05-11T16:25:20.044Z,4.20
2019-05-11T16:27:49.643Z,3.85
2019-05-11T16:30:21.488Z,3.85
2019-05-11T16:32:50.508Z,4.30
2019-05-11T16:35:19.860Z,4.25
2019-05-11T16:37:49.139Z,3.83
2019-05-11T16:40:20.831Z,4.25
2019-05-11T16:42:50.833Z,4.00
2019-05-11T16:45:23.492Z,3.90
2019-05-11T16:47:51.298Z,3.80
2019-05-11T16:50:20.580Z,3.67
2019-05-11T16:52:49.856Z,4.35
2019-05-11T16:55:19.166Z,3.62
2019-05-11T16:57:48.984Z,3.47
2019-05-11T17:00:18.490Z,3.70
2019-05-11T17:02:49.108Z,3.52
2019-05-11T17:05:26.322Z,3.42
2019-05-11T17:07:49.877Z,3.65
2019-05-11T17:10:19.261Z,3.00
2019-05-11T17:12:49.014Z,3.42
2019-05-11T17:15:19.069Z,3.30
2019-05-11T17:17:49.285Z,3.58
2019-05-11T17:20:19.176Z,3.35
2019-05-11T17:22:48.959Z,3.30
2019-05-11T17:25:19.139Z,3.67
2019-05-11T17:27:49.181Z,3.47
2019-05-11T17:30:19.804Z,3.35
2019-05-11T17:32:49.834Z,3.35
2019-05-11T17:35:19.649Z,3.22
2019-05-11T17:37:49.046Z,3.35
2019-05-11T17:40:23.126Z,2.90
2019-05-11T17:42:53.257Z,3.25
2019-05-11T17:45:20.788Z,3.60
2019-05-11T17:47:50.151Z,3.17
2019-05-11T17:50:19.509Z,3.30
2019-05-11T17:52:48.787Z,3.25
2019-05-11T17:55:18.617Z,3.22
2019-05-11T17:57:49.525Z,3.33
2019-05-11T18:00:20.045Z,2.98
2019-05-11T18:02:49.644Z,2.72
2019-05-11T18:05:18.942Z,2.87
2019-05-11T18:07:48.267Z,3.27
2019-05-11T18:10:18.453Z,3.30
2019-05-11T18:12:48.561Z,3.30
2019-05-11T18:15:18.922Z,3.30
2019-05-11T18:17:48.974Z,3.00
2019-05-11T18:20:21.968Z,3.00
2019-05-11T18:22:50.960Z,3.22
2019-05-11T18:25:20.509Z,3.12
2019-05-11T18:27:49.825Z,2.98
2019-05-11T18:30:20.202Z,2.80
2019-05-11T18:32:49.475Z,2.80
2019-05-11T18:35:19.653Z,2.62
2019-05-11T18:37:50.285Z,2.95
2019-05-11T18:40:19.661Z,2.75
2019-05-11T18:42:49.226Z,3.00
2019-05-11T18:45:19.328Z,3.00
2019-05-11T18:47:49.286Z,3.12
2019-05-11T18:50:29.877Z,2.72
2019-05-11T18:52:50.149Z,2.95
2019-05-11T18:55:19.443Z,2.72
2019-05-11T18:57:49.383Z,2.83
2019-05-11T19:00:20.006Z,2.70
2019-05-11T19:02:49.869Z,2.58
2019-05-11T19:05:20.149Z,2.42
2019-05-11T19:07:49.440Z,2.70
2019-05-11T19:10:18.929Z,2.60
2019-05-11T19:12:49.243Z,2.43
2019-05-11T19:15:19.327Z,2.80
2019-05-11T19:17:49.288Z,2.52
2019-05-11T19:20:18.867Z,2.58
2019-05-11T19:22:48.137Z,2.60
2019-05-11T19:25:18.213Z,2.27
2019-05-11T19:27:50.682Z,2.50
2019-05-11T19:30:19.967Z,2.60
2019-05-11T19:32:49.257Z,2.52
2019-05-11T19:35:21.070Z,2.65
2019-05-11T19:37:49.512Z,2.67
2019-05-11T19:40:18.787Z,2.50
2019-05-11T19:42:53.867Z,2.58
2019-05-11T19:45:23.784Z,2.60
2019-05-11T19:47:53.370Z,3.17
2019-05-11T19:50:24.189Z,2.87
2019-05-11T19:52:53.493Z,2.90
2019-05-11T19:55:22.814Z,2.72
2019-05-11T19:57:53.170Z,2.70
2019-05-11T20:00:22.544Z,2.92
2019-05-11T20:02:51.838Z,2.80
2019-05-11T20:05:21.153Z,2.67
2019-05-11T20:07:50.442Z,2.72
2019-05-11T20:10:19.736Z,3.17
2019-05-11T20:12:49.031Z,2.87
2019-05-11T20:15:19.409Z,3.10
2019-05-11T20:17:49.122Z,2.83
2019-05-11T20:20:18.950Z,3.27
2019-05-11T20:22:48.750Z,3.00
2019-05-11T20:25:19.132Z,3.60
2019-05-11T20:27:49.031Z,2.95
2019-05-11T20:30:19.311Z,3.20
2019-05-11T20:32:49.363Z,2.90
2019-05-11T20:35:18.925Z,2.90
2019-05-11T20:37:48.323Z,2.75
2019-05-11T20:40:18.500Z,3.10
2019-05-11T20:42:48.673Z,3.90
2019-05-11T20:45:18.937Z,3.37
2019-05-11T20:47:49.399Z,3.35
2019-05-11T20:50:18.897Z,3.50
2019-05-11T20:52:48.668Z,3.77
2019-05-11T20:55:18.478Z,4.10
2019-05-11T20:57:48.671Z,3.50
2019-05-11T21:00:18.830Z,3.50
2019-05-11T21:02:49.122Z,3.58
2019-05-11T21:05:18.714Z,3.77
2019-05-11T21:07:48.121Z,4.12
2019-05-11T21:10:17.487Z,4.03
2019-05-11T21:12:46.914Z,5.15
2019-05-11T21:15:17.304Z,4.40
2019-05-11T21:17:48.194Z,4.40
2019-05-11T21:20:18.211Z,4.72
2019-05-11T21:22:48.622Z,4.42
2019-05-11T21:25:18.434Z,4.67
2019-05-11T21:27:48.615Z,4.60
2019-05-11T21:30:18.745Z,4.95
2019-05-11T21:32:48.273Z,5.15
2019-05-11T21:35:19.181Z,4.72
2019-05-11T21:37:48.834Z,5.10
2019-05-11T21:40:18.373Z,5.08
2019-05-11T21:42:47.793Z,4.75
2019-05-11T21:45:18.435Z,4.80
2019-05-11T21:47:48.892Z,4.70
2019-05-11T21:50:19.219Z,5.20
2019-05-11T21:52:48.662Z,4.83
2019-05-11T21:55:19.142Z,5.00
2019-05-11T21:57:49.839Z,5.42
2019-05-11T22:00:19.763Z,5.05
2019-05-11T22:02:50.666Z,5.30
2019-05-11T22:05:20.848Z,5.25
2019-05-11T22:07:50.437Z,5.58
2019-05-11T22:10:20.426Z,5.08
2019-05-11T22:12:49.696Z,5.17
2019-05-11T22:15:19.070Z,5.17
2019-05-11T22:17:49.417Z,5.22
2019-05-11T22:20:18.716Z,5.78
2019-05-11T22:22:48.148Z,4.87
2019-05-11T22:25:18.304Z,4.83
2019-05-11T22:27:48.842Z,4.85
2019-05-11T22:30:20.409Z,4.50
2019-05-11T22:32:49.732Z,5.00
2019-05-11T22:35:18.997Z,5.25
2019-05-11T22:37:49.058Z,5.17
2019-05-11T22:40:18.737Z,4.70
2019-05-11T22:42:48.052Z,4.60
2019-05-11T22:45:18.689Z,4.20
2019-05-11T22:47:48.322Z,3.80
2019-05-11T22:50:18.670Z,4.40
2019-05-11T22:52:48.486Z,4.00
2019-05-11T22:55:18.846Z,4.37
2019-05-11T22:57:48.771Z,4.33
2019-05-11T23:00:21.404Z,3.70
2019-05-11T23:02:53.400Z,3.85
2019-05-11T23:05:24.189Z,3.85
2019-05-11T23:07:53.482Z,4.37
2019-05-11T23:10:23.925Z,4.03
2019-05-11T23:12:53.214Z,4.15
2019-05-11T23:15:22.495Z,4.15
2019-05-11T23:17:51.846Z,4.30
2019-05-11T23:20:22.695Z,3.98
2019-05-11T23:22:57.909Z,4.42
2019-05-11T23:25:22.989Z,3.72
2019-05-11T23:27:53.147Z,4.17
2019-05-11T23:30:22.512Z,4.37
2019-05-11T23:32:53.465Z,4.42
2019-05-11T23:35:22.897Z,3.95
2019-05-11T23:37:52.200Z,4.20
2019-05-11T23:40:22.874Z,4.50
2019-05-11T23:42:52.863Z,4.47
2019-05-11T23:45:22.146Z,4.37
2019-05-11T23:47:51.437Z,4.67
2019-05-11T23:50:21.018Z,4.55
2019-05-11T23:53:05.485Z,4.60
2019-05-11T23:55:22.933Z,4.35
2019-05-11T23:57:52.219Z,4.40
